createdAt,value
2022-11-14T00:00:11.109Z,99.99
2022-11-14T00:01:11.161Z,99.99
2022-11-14T00:02:11.150Z,99.99
2022-11-14T00:03:11.118Z,99.99
2022-11-14T00:04:11.161Z,99.99
2022-11-14T00:05:11.086Z,99.99
2022-11-14T00:06:11.054Z,99.99
2022-11-14T00:07:11.127Z,99.99
2022-11-14T00:08:11.040Z,99.99
2022-11-14T00:09:11.030Z,99.99
2022-11-14T00:10:11.058Z,99.99
2022-11-14T00:11:11.042Z,99.99
2022-11-14T00:12:11.025Z,99.99
2022-11-14T00:13:11.005Z,99.99
2022-11-14T00:14:11.033Z,99.99
2022-11-14T00:15:10.977Z,99.99
2022-11-14T00:16:10.983Z,99.99
2022-11-14T00:17:11.069Z,99.99
2022-11-14T00:18:10.991Z,99.99
2022-11-14T00:19:11.873Z,99.99
2022-11-14T00:20:10.956Z,99.99
2022-11-14T00:21:10.947Z,99.99
2022-11-14T00:22:10.935Z,99.99
2022-11-14T00:23:10.919Z,99.99
2022-11-14T00:24:10.925Z,99.99
2022-11-14T00:25:10.920Z,99.99
2022-11-14T00:26:11.969Z,99.99
2022-11-14T00:27:10.879Z,99.99
2022-11-14T00:28:10.912Z,99.99
2022-11-14T00:29:10.872Z,99.99
2022-11-14T00:30:10.873Z,99.99
2022-11-14T00:31:10.853Z,99.99
2022-11-14T00:32:10.888Z,99.99
2022-11-14T00:33:13.651Z,99.99
2022-11-14T00:34:11.849Z,99.99
2022-11-14T00:35:10.839Z,99.99
2022-11-14T00:36:10.822Z,99.99
2022-11-14T00:37:10.837Z,99.99
2022-11-14T00:38:10.794Z,99.99
2022-11-14T00:39:10.796Z,99.99
2022-11-14T00:40:10.799Z,99.99
2022-11-14T00:41:10.783Z,99.99
2022-11-14T00:42:10.774Z,99.99
2022-11-14T00:43:10.777Z,99.99
2022-11-14T00:44:10.775Z,99.99
2022-11-14T00:45:10.849Z,99.99
2022-11-14T00:46:10.771Z,99.99
2022-11-14T00:47:10.752Z,99.99
2022-11-14T00:48:10.724Z,99.99
2022-11-14T00:49:10.854Z,99.99
2022-11-14T00:50:10.708Z,99.99
2022-11-14T00:51:10.704Z,99.99
2022-11-14T00:52:10.714Z,99.99
2022-11-14T00:53:10.691Z,99.99
2022-11-14T00:54:10.687Z,99.99
2022-11-14T00:55:10.690Z,99.99
2022-11-14T00:56:10.658Z,99.99
2022-11-14T00:57:10.720Z,99.99
2022-11-14T00:58:10.685Z,99.99
2022-11-14T00:59:10.673Z,99.99
2022-11-14T01:00:10.735Z,99.99
2022-11-14T01:01:10.673Z,99.99
2022-11-14T01:02:10.595Z,99.99
2022-11-14T01:03:10.645Z,99.99
2022-11-14T01:04:10.613Z,99.99
2022-11-14T01:05:10.724Z,99.99
2022-11-14T01:06:10.581Z,99.99
2022-11-14T01:07:10.573Z,99.99
2022-11-14T01:08:10.596Z,99.99
2022-11-14T01:09:10.770Z,99.99
2022-11-14T01:10:10.566Z,99.99
2022-11-14T01:11:10.591Z,99.99
2022-11-14T01:12:10.557Z,99.99
2022-11-14T01:13:10.549Z,99.99
2022-11-14T01:14:10.525Z,99.99
2022-11-14T01:15:10.521Z,99.99
2022-11-14T01:16:10.531Z,99.99
2022-11-14T01:17:10.510Z,99.99
2022-11-14T01:18:10.495Z,99.99
2022-11-14T01:19:10.488Z,99.99
2022-11-14T01:20:10.486Z,99.99
2022-11-14T01:21:10.596Z,99.99
2022-11-14T01:22:10.479Z,99.99
2022-11-14T01:23:10.498Z,99.99
2022-11-14T01:24:10.514Z,99.99
2022-11-14T01:25:10.458Z,99.99
2022-11-14T01:26:10.434Z,99.99
2022-11-14T01:27:10.505Z,99.99
2022-11-14T01:28:10.430Z,99.99
2022-11-14T01:29:10.482Z,99.99
2022-11-14T01:30:10.413Z,99.99
2022-11-14T01:31:10.457Z,99.99
2022-11-14T01:32:10.386Z,99.99
2022-11-14T01:33:10.402Z,99.99
2022-11-14T01:34:10.364Z,99.99
2022-11-14T01:35:10.363Z,99.99
2022-11-14T01:36:10.391Z,99.99
2022-11-14T01:37:10.448Z,99.99
2022-11-14T01:38:10.370Z,99.99
2022-11-14T01:39:10.351Z,99.99
2022-11-14T01:40:10.337Z,99.99
2022-11-14T01:41:10.323Z,99.99
2022-11-14T01:42:10.360Z,99.99
2022-11-14T01:43:10.446Z,99.99
2022-11-14T01:44:10.332Z,99.99
2022-11-14T02:01:08.944Z,99.99
2022-11-14T02:01:57.245Z,99.99
2022-11-14T02:02:56.982Z,99.99
2022-11-14T02:03:56.950Z,99.99
2022-11-14T02:04:56.987Z,99.99
2022-11-14T02:05:56.981Z,99.99
2022-11-14T02:06:56.949Z,99.99
2022-11-14T02:07:56.970Z,99.99
2022-11-14T02:08:56.934Z,99.99
2022-11-14T02:09:56.920Z,99.99
2022-11-14T02:10:56.986Z,99.99
2022-11-14T02:12:28.761Z,99.99
2022-11-14T02:12:56.836Z,99.99
2022-11-14T02:13:56.831Z,99.99
2022-11-14T02:15:28.737Z,99.99
2022-11-14T02:15:56.800Z,99.99
2022-11-14T02:17:22.660Z,99.99
2022-11-14T02:17:58.784Z,99.99
2022-11-14T02:18:56.813Z,99.99
2022-11-14T02:20:00.805Z,99.99
2022-11-14T02:20:57.770Z,99.99
2022-11-14T02:21:56.780Z,99.99
2022-11-14T02:22:56.760Z,99.99
2022-11-14T02:23:56.753Z,99.99
2022-11-14T02:24:56.734Z,99.99
2022-11-14T02:25:56.750Z,99.99
2022-11-14T02:26:56.744Z,99.99
2022-11-14T02:27:56.715Z,99.99
2022-11-14T02:28:56.760Z,99.99
2022-11-14T02:29:56.704Z,99.99
2022-11-14T02:30:57.705Z,99.99
2022-11-14T02:31:56.692Z,99.99
2022-11-14T02:33:10.417Z,99.99
2022-11-14T02:33:59.413Z,99.99
2022-11-14T02:34:56.671Z,99.99
2022-11-14T02:35:56.725Z,99.99
2022-11-14T02:36:56.664Z,99.99
2022-11-14T02:37:56.631Z,99.99
2022-11-14T02:38:56.625Z,99.99
2022-11-14T02:39:56.613Z,99.99
2022-11-14T02:40:56.655Z,99.99
2022-11-14T02:41:56.647Z,99.99
2022-11-14T02:42:56.594Z,99.99
2022-11-14T02:43:56.584Z,99.99
2022-11-14T02:44:56.609Z,99.99
2022-11-14T02:45:59.179Z,99.99
2022-11-14T02:46:57.589Z,99.99
2022-11-14T02:47:56.584Z,99.99
2022-11-14T02:48:56.680Z,99.99
2022-11-14T02:49:56.558Z,99.99
2022-11-14T02:50:57.572Z,99.99
2022-11-14T02:51:56.551Z,99.99
2022-11-14T02:52:56.540Z,99.99
2022-11-14T02:53:57.412Z,99.99
2022-11-14T02:54:56.516Z,99.99
2022-11-14T02:55:56.546Z,99.99
2022-11-14T02:56:56.502Z,99.99
2022-11-14T02:57:56.474Z,99.99
2022-11-14T02:58:56.508Z,99.99
2022-11-14T02:59:56.505Z,99.99
2022-11-14T03:01:19.106Z,99.99
2022-11-14T03:01:58.536Z,99.99
2022-11-14T03:02:57.380Z,99.99
2022-11-14T03:03:56.435Z,99.99
2022-11-14T03:04:56.566Z,99.99
2022-11-14T03:05:57.376Z,99.99
2022-11-14T03:06:56.498Z,99.99
2022-11-14T03:07:56.447Z,99.99
2022-11-14T03:08:56.408Z,99.99
2022-11-14T03:09:56.397Z,99.99
2022-11-14T03:10:56.504Z,99.99
2022-11-14T03:11:56.419Z,99.99
2022-11-14T03:12:56.496Z,99.99
2022-11-14T03:13:56.415Z,99.99
2022-11-14T03:14:56.390Z,99.99
2022-11-14T03:15:56.389Z,99.99
2022-11-14T03:16:56.361Z,99.99
2022-11-14T03:17:56.377Z,99.99
2022-11-14T03:18:56.351Z,99.99
2022-11-14T03:19:56.316Z,99.99
2022-11-14T03:20:56.393Z,99.99
2022-11-14T03:21:56.313Z,99.99
2022-11-14T03:22:56.374Z,99.99
2022-11-14T03:23:56.311Z,99.99
2022-11-14T03:24:56.329Z,99.99
2022-11-14T03:25:56.272Z,99.99
2022-11-14T03:26:56.290Z,99.99
2022-11-14T03:27:56.303Z,99.99
2022-11-14T03:28:56.257Z,99.99
2022-11-14T03:29:56.265Z,99.99
2022-11-14T03:30:56.253Z,99.99
2022-11-14T03:31:56.282Z,99.99
2022-11-14T03:32:56.229Z,99.99
2022-11-14T03:33:56.227Z,99.99
2022-11-14T03:34:56.224Z,99.99
2022-11-14T03:35:56.201Z,99.99
2022-11-14T03:36:56.267Z,99.99
2022-11-14T03:37:56.721Z,99.99
2022-11-14T03:38:57.167Z,99.99
2022-11-14T03:39:56.189Z,99.99
2022-11-14T03:40:56.177Z,99.99
2022-11-14T03:41:56.162Z,99.99
2022-11-14T03:42:56.213Z,99.99
2022-11-14T03:43:56.170Z,99.99
2022-11-14T03:44:56.176Z,99.99
2022-11-14T03:45:56.125Z,99.99
2022-11-14T03:46:56.112Z,99.99
2022-11-14T04:02:55.114Z,99.99
2022-11-14T04:03:55.017Z,99.99
2022-11-14T04:04:54.996Z,99.99
2022-11-14T04:05:56.104Z,99.99
2022-11-14T04:06:56.203Z,99.99
2022-11-14T04:07:56.119Z,99.99
2022-11-14T04:08:56.101Z,99.99
2022-11-14T04:09:56.120Z,99.99
2022-11-14T04:10:56.091Z,99.99
2022-11-14T04:11:56.073Z,99.99
2022-11-14T04:12:56.065Z,99.99
2022-11-14T04:13:56.261Z,99.99
2022-11-14T04:14:56.052Z,99.99
2022-11-14T04:15:56.052Z,99.99
2022-11-14T04:16:56.063Z,99.99
2022-11-14T04:17:56.027Z,99.99
2022-11-14T04:18:56.126Z,99.99
2022-11-14T04:19:56.011Z,99.99
2022-11-14T04:20:56.023Z,99.99
2022-11-14T04:21:55.994Z,99.99
2022-11-14T04:22:55.987Z,99.99
2022-11-14T04:23:55.999Z,99.99
2022-11-14T04:24:55.999Z,99.99
2022-11-14T04:25:55.985Z,99.99
2022-11-14T04:26:55.961Z,99.99
2022-11-14T04:27:55.962Z,99.99
2022-11-14T04:28:55.939Z,99.99
2022-11-14T04:29:55.949Z,99.99
2022-11-14T04:30:55.921Z,99.99
2022-11-14T04:31:55.911Z,99.99
2022-11-14T04:32:56.908Z,99.99
2022-11-14T04:33:55.952Z,99.99
2022-11-14T04:34:56.001Z,99.99
2022-11-14T04:35:55.907Z,99.99
2022-11-14T04:36:55.882Z,99.99
2022-11-14T04:37:55.884Z,99.99
2022-11-14T04:38:56.728Z,99.99
2022-11-14T04:39:55.879Z,99.99
2022-11-14T04:40:55.909Z,99.99
2022-11-14T04:41:55.873Z,99.99
2022-11-14T04:42:55.845Z,99.99
2022-11-14T04:43:55.840Z,99.99
2022-11-14T04:44:55.890Z,99.99
2022-11-14T04:45:55.930Z,99.99
2022-11-14T04:46:55.861Z,99.99
2022-11-14T04:47:55.799Z,99.99
2022-11-14T04:48:55.794Z,99.99
2022-11-14T04:49:55.800Z,99.99
2022-11-14T04:50:55.932Z,99.99
2022-11-14T04:51:55.864Z,99.99
2022-11-14T04:52:55.808Z,99.99
2022-11-14T04:53:55.788Z,99.99
2022-11-14T04:54:55.745Z,99.99
2022-11-14T04:55:55.764Z,99.99
2022-11-14T04:56:55.758Z,99.99
2022-11-14T04:57:55.713Z,99.99
2022-11-14T04:58:55.717Z,99.99
2022-11-14T04:59:55.735Z,99.99
2022-11-14T05:00:55.810Z,99.99
2022-11-14T05:01:55.790Z,99.99
2022-11-14T05:02:56.728Z,99.99
2022-11-14T05:03:55.776Z,99.99
2022-11-14T05:04:55.668Z,99.99
2022-11-14T05:05:55.661Z,99.99
2022-11-14T05:06:55.760Z,99.99
2022-11-14T05:07:55.669Z,99.99
2022-11-14T05:08:55.664Z,99.99
2022-11-14T05:09:55.660Z,99.99
2022-11-14T05:10:55.620Z,99.99
2022-11-14T05:11:55.643Z,99.99
2022-11-14T05:12:55.679Z,99.99
2022-11-14T05:13:55.637Z,99.99
2022-11-14T05:14:55.596Z,99.99
2022-11-14T05:15:55.610Z,99.99
2022-11-14T05:16:55.573Z,99.99
2022-11-14T05:17:55.580Z,99.99
2022-11-14T05:18:55.624Z,99.99
2022-11-14T05:19:56.563Z,99.99
2022-11-14T05:20:55.585Z,99.99
2022-11-14T05:21:55.540Z,99.99
2022-11-14T05:22:55.545Z,99.99
2022-11-14T05:23:55.538Z,99.99
2022-11-14T05:24:55.524Z,99.99
2022-11-14T05:25:58.690Z,99.99
2022-11-14T05:26:56.517Z,99.99
2022-11-14T05:27:55.512Z,99.99
2022-11-14T05:28:55.484Z,99.99
2022-11-14T05:29:55.492Z,99.99
2022-11-14T05:30:55.519Z,99.99
2022-11-14T05:31:55.496Z,99.99
2022-11-14T05:32:56.252Z,99.99
2022-11-14T05:33:55.478Z,99.99
2022-11-14T05:34:55.495Z,99.99
2022-11-14T05:35:55.454Z,99.99
2022-11-14T05:36:55.440Z,99.99
2022-11-14T05:37:59.087Z,99.99
2022-11-14T05:38:56.428Z,99.99
2022-11-14T05:39:55.452Z,99.99
2022-11-14T05:40:55.408Z,99.99
2022-11-14T05:41:55.389Z,99.99
2022-11-14T05:42:55.503Z,99.99
2022-11-14T05:43:55.395Z,99.99
2022-11-14T05:44:56.376Z,99.99
2022-11-14T05:45:55.381Z,99.99
2022-11-14T05:46:55.373Z,99.99
2022-11-14T05:47:55.344Z,99.99
2022-11-14T05:48:55.340Z,99.99
2022-11-14T05:49:55.337Z,99.99
2022-11-14T05:50:56.370Z,99.99
2022-11-14T05:51:55.349Z,99.99
2022-11-14T05:52:55.306Z,99.99
2022-11-14T05:53:55.324Z,99.99
2022-11-14T05:54:55.294Z,99.99
2022-11-14T05:55:55.311Z,99.99
2022-11-14T05:56:55.266Z,99.99
2022-11-14T05:57:55.285Z,99.99
2022-11-14T05:58:55.289Z,99.99
2022-11-14T05:59:55.259Z,99.99
2022-11-14T06:00:55.290Z,99.99
2022-11-14T06:01:55.279Z,99.99
2022-11-14T06:02:55.212Z,99.99
2022-11-14T06:03:56.245Z,99.99
2022-11-14T06:04:55.210Z,99.99
2022-11-14T06:05:55.201Z,99.99
2022-11-14T06:06:55.260Z,99.99
2022-11-14T06:07:55.203Z,99.99
2022-11-14T06:08:55.192Z,99.99
2022-11-14T06:09:55.170Z,99.99
2022-11-14T06:10:56.241Z,99.99
2022-11-14T06:11:55.225Z,99.99
2022-11-14T06:12:55.181Z,99.99
2022-11-14T06:13:55.195Z,99.99
2022-11-14T06:14:55.181Z,99.99
2022-11-14T06:15:55.163Z,99.99
2022-11-14T06:16:55.145Z,99.99
2022-11-14T06:17:55.115Z,99.99
2022-11-14T06:18:55.116Z,99.99
2022-11-14T06:19:55.100Z,99.99
2022-11-14T06:20:55.144Z,99.99
2022-11-14T06:21:55.091Z,99.99
2022-11-14T06:22:55.092Z,99.99
2022-11-14T06:23:55.093Z,99.99
2022-11-14T06:24:55.068Z,99.99
2022-11-14T06:25:55.093Z,99.99
2022-11-14T06:26:55.046Z,99.99
2022-11-14T06:27:55.049Z,99.99
2022-11-14T06:28:55.064Z,99.99
2022-11-14T06:29:55.045Z,99.99
2022-11-14T06:30:55.130Z,99.99
2022-11-14T06:31:55.040Z,99.99
2022-11-14T06:32:55.052Z,99.99
2022-11-14T06:33:55.114Z,99.99
2022-11-14T06:34:55.032Z,99.99
2022-11-14T06:35:55.031Z,99.99
2022-11-14T06:36:55.017Z,99.99
2022-11-14T06:37:54.980Z,99.99
2022-11-14T06:38:54.982Z,99.99
2022-11-14T06:39:55.023Z,99.99
2022-11-14T06:40:54.971Z,99.99
2022-11-14T06:41:54.968Z,99.99
2022-11-14T06:42:54.941Z,99.99
2022-11-14T06:43:54.949Z,99.99
2022-11-14T06:44:54.970Z,99.99
2022-11-14T06:45:54.948Z,99.99
2022-11-14T06:46:54.885Z,99.99
2022-11-14T06:47:54.896Z,99.99
2022-11-14T06:48:54.887Z,99.99
2022-11-14T06:49:54.896Z,99.99
2022-11-14T06:50:54.881Z,99.99
2022-11-14T06:51:54.916Z,99.99
2022-11-14T06:52:54.891Z,99.99
2022-11-14T06:53:54.856Z,99.99
2022-11-14T06:54:54.841Z,99.99
2022-11-14T06:55:54.864Z,99.99
2022-11-14T06:56:54.847Z,99.99
2022-11-14T06:57:54.873Z,99.99
2022-11-14T06:58:54.803Z,99.99
2022-11-14T06:59:54.919Z,99.99
2022-11-14T07:00:54.804Z,99.99
2022-11-14T07:01:54.786Z,99.99
2022-11-14T07:02:54.911Z,99.99
2022-11-14T07:03:54.783Z,99.99
2022-11-14T07:04:54.754Z,99.99
2022-11-14T07:05:54.756Z,99.99
2022-11-14T07:06:54.822Z,99.99
2022-11-14T07:07:54.870Z,99.99
2022-11-14T07:08:54.723Z,99.99
2022-11-14T07:09:54.779Z,99.99
2022-11-14T07:10:54.714Z,99.99
2022-11-14T07:11:54.725Z,99.99
2022-11-14T07:12:54.741Z,99.99
2022-11-14T07:13:54.690Z,99.99
2022-11-14T07:14:54.700Z,99.99
2022-11-14T07:15:54.683Z,99.99
2022-11-14T07:16:54.690Z,99.99
2022-11-14T07:17:54.711Z,99.99
2022-11-14T07:18:54.666Z,99.99
2022-11-14T07:19:54.649Z,99.99
2022-11-14T07:20:54.625Z,99.99
2022-11-14T07:21:54.641Z,99.99
2022-11-14T07:22:54.634Z,98.52
2022-11-14T07:23:54.648Z,97.34
2022-11-14T07:24:54.639Z,95.99
2022-11-14T07:25:54.631Z,95.47
2022-11-14T07:26:54.602Z,94.74
2022-11-14T07:27:54.596Z,95.57
2022-11-14T07:29:00.719Z,94.66
2022-11-14T07:29:56.566Z,93.93
2022-11-14T07:30:54.584Z,93.31
2022-11-14T07:32:26.552Z,93.46
2022-11-14T07:32:54.620Z,94.12
2022-11-14T07:33:54.556Z,95.41
2022-11-14T07:34:59.224Z,95.81
2022-11-14T07:35:56.553Z,97.47
2022-11-14T07:36:54.546Z,97.83
2022-11-14T07:37:54.523Z,98.76
2022-11-14T07:38:54.526Z,98.97
2022-11-14T07:39:54.604Z,99.24
2022-11-14T07:40:59.333Z,99.44
2022-11-14T07:41:56.534Z,98.68
2022-11-14T07:42:54.483Z,98.21
2022-11-14T07:43:54.494Z,97.53
2022-11-14T07:44:54.464Z,98.60
2022-11-14T07:45:54.473Z,99.54
2022-11-14T07:46:54.464Z,99.99
2022-11-14T07:47:54.423Z,99.99
2022-11-14T07:48:54.452Z,99.99
2022-11-14T07:49:54.512Z,99.99
2022-11-14T07:50:54.429Z,99.99
2022-11-14T07:51:54.438Z,99.99
2022-11-14T07:52:54.420Z,99.99
2022-11-14T07:53:55.254Z,99.99
2022-11-14T07:54:54.380Z,99.99
2022-11-14T07:55:54.380Z,99.99
2022-11-14T07:56:54.435Z,99.99
2022-11-14T07:57:54.365Z,99.99
2022-11-14T07:58:54.374Z,99.99
2022-11-14T07:59:54.393Z,99.99
2022-11-14T08:00:54.376Z,99.99
2022-11-14T08:01:54.326Z,99.99
2022-11-14T08:02:54.346Z,99.99
2022-11-14T08:03:54.348Z,99.99
2022-11-14T08:04:54.345Z,99.99
2022-11-14T08:05:54.302Z,99.99
2022-11-14T08:06:54.446Z,99.99
2022-11-14T08:07:54.283Z,99.99
2022-11-14T08:08:54.276Z,99.99
2022-11-14T08:09:54.281Z,99.99
2022-11-14T08:10:54.274Z,99.99
2022-11-14T08:11:54.258Z,99.99
2022-11-14T08:13:10.805Z,99.99
2022-11-14T08:13:56.279Z,99.61
2022-11-14T08:15:26.190Z,98.51
2022-11-14T08:15:54.257Z,98.97
2022-11-14T08:16:54.247Z,99.70
2022-11-14T08:17:54.219Z,99.70
2022-11-14T08:18:54.239Z,99.55
2022-11-14T08:19:55.213Z,99.19
2022-11-14T08:20:54.201Z,98.99
2022-11-14T08:21:54.199Z,98.11
2022-11-14T08:22:54.184Z,96.78
2022-11-14T08:23:54.186Z,96.47
2022-11-14T08:24:54.204Z,94.72
2022-11-14T08:25:54.170Z,94.26
2022-11-14T08:26:54.169Z,92.83
2022-11-14T08:27:54.141Z,91.07
2022-11-14T08:28:54.131Z,90.52
2022-11-14T08:29:54.141Z,89.36
2022-11-14T08:30:54.105Z,87.48
2022-11-14T08:31:58.630Z,83.80
2022-11-14T08:32:56.088Z,82.92
2022-11-14T08:33:54.157Z,79.36
2022-11-14T08:34:54.187Z,77.95
2022-11-14T08:35:54.065Z,79.61
2022-11-14T08:36:54.085Z,80.12
2022-11-14T08:37:54.123Z,79.91
2022-11-14T08:38:58.908Z,79.85
2022-11-14T08:39:56.048Z,81.19
2022-11-14T08:40:54.052Z,79.53
2022-11-14T08:41:54.024Z,78.33
2022-11-14T08:42:54.096Z,76.62
2022-11-14T08:43:54.020Z,75.59
2022-11-14T08:44:54.027Z,73.85
2022-11-14T08:45:54.000Z,72.92
2022-11-14T08:46:53.980Z,71.56
2022-11-14T08:47:53.979Z,68.95
2022-11-14T08:48:54.009Z,69.56
2022-11-14T08:49:54.000Z,67.96
2022-11-14T08:50:53.945Z,66.17
2022-11-14T08:51:53.983Z,65.16
2022-11-14T08:52:53.935Z,65.36
2022-11-14T08:53:53.998Z,65.34
2022-11-14T08:54:53.918Z,70.20
2022-11-14T08:55:53.926Z,73.10
2022-11-14T08:56:53.931Z,74.12
2022-11-14T08:57:53.936Z,75.11
2022-11-14T08:58:54.655Z,76.10
2022-11-14T08:59:53.903Z,74.46
2022-11-14T09:00:53.928Z,71.77
2022-11-14T09:01:53.889Z,70.13
2022-11-14T09:02:53.931Z,72.31
2022-11-14T09:03:59.409Z,75.25
2022-11-14T09:04:56.850Z,76.79
2022-11-14T09:05:53.885Z,77.58
2022-11-14T09:06:53.927Z,76.17
2022-11-14T09:07:53.836Z,75.93
2022-11-14T09:08:53.839Z,75.24
2022-11-14T09:09:53.859Z,75.28
2022-11-14T09:10:53.858Z,73.81
2022-11-14T09:11:53.803Z,71.46
2022-11-14T09:12:53.791Z,69.86
2022-11-14T09:13:53.826Z,70.00
2022-11-14T09:14:53.803Z,71.05
2022-11-14T09:15:53.805Z,72.04
2022-11-14T09:16:53.780Z,72.52
2022-11-14T09:17:53.777Z,75.04
2022-11-14T09:18:53.749Z,75.59
2022-11-14T09:19:53.726Z,75.73
2022-11-14T09:20:54.951Z,75.01
2022-11-14T09:21:53.756Z,75.42
2022-11-14T09:22:53.739Z,75.82
2022-11-14T09:23:58.839Z,76.17
2022-11-14T09:24:56.311Z,78.23
2022-11-14T09:25:53.690Z,77.33
2022-11-14T09:26:57.059Z,75.38
2022-11-14T09:27:54.792Z,73.30
2022-11-14T09:28:53.691Z,72.65
2022-11-14T09:29:53.662Z,71.73
2022-11-14T09:30:53.662Z,71.94
2022-11-14T09:31:53.644Z,71.53
2022-11-14T09:32:53.634Z,72.07
2022-11-14T09:33:53.624Z,74.08
2022-11-14T09:34:53.622Z,75.93
2022-11-14T09:35:53.627Z,75.07
2022-11-14T09:36:53.610Z,75.89
2022-11-14T09:37:53.608Z,76.48
2022-11-14T09:38:53.602Z,76.65
2022-11-14T09:39:53.625Z,75.48
2022-11-14T09:40:53.635Z,75.21
2022-11-14T09:41:54.313Z,74.02
2022-11-14T09:42:53.568Z,74.97
2022-11-14T09:43:54.348Z,76.03
2022-11-14T09:44:53.555Z,75.69
2022-11-14T09:45:53.579Z,74.84
2022-11-14T09:46:53.550Z,74.39
2022-11-14T09:47:53.567Z,73.74
2022-11-14T09:48:53.537Z,72.48
2022-11-14T09:49:54.321Z,73.74
2022-11-14T09:50:53.526Z,75.93
2022-11-14T09:51:53.528Z,77.30
2022-11-14T09:52:53.526Z,79.22
2022-11-14T09:53:53.511Z,78.08
2022-11-14T09:54:53.552Z,75.89
2022-11-14T09:55:53.501Z,75.04
2022-11-14T09:56:53.517Z,74.73
2022-11-14T09:57:53.511Z,74.97
2022-11-14T09:58:53.521Z,76.10
2022-11-14T09:59:53.463Z,75.72
2022-11-14T10:00:53.437Z,75.01
2022-11-14T10:01:53.606Z,75.24
2022-11-14T10:02:53.440Z,74.73
2022-11-14T10:03:53.441Z,74.90
2022-11-14T10:04:53.904Z,74.84
2022-11-14T10:05:53.405Z,73.23
2022-11-14T10:06:53.411Z,72.75
2022-11-14T10:07:53.379Z,72.48
2022-11-14T10:08:53.386Z,71.70
2022-11-14T10:09:53.889Z,72.52
2022-11-14T10:10:53.365Z,72.41
2022-11-14T10:11:53.372Z,71.63
2022-11-14T10:12:53.858Z,70.48
2022-11-14T10:13:53.404Z,69.70
2022-11-14T10:14:53.354Z,69.76
2022-11-14T10:15:53.330Z,70.27
2022-11-14T10:16:53.428Z,70.04
2022-11-14T10:17:53.296Z,68.95
2022-11-14T10:18:53.307Z,71.19
2022-11-14T10:19:53.289Z,72.72
2022-11-14T10:20:53.298Z,74.39
2022-11-14T10:21:53.316Z,75.21
2022-11-14T10:22:56.180Z,77.29
2022-11-14T10:23:54.263Z,78.02
2022-11-14T10:24:53.273Z,78.21
2022-11-14T10:25:53.254Z,75.51
2022-11-14T10:26:53.281Z,74.18
2022-11-14T10:27:57.452Z,73.68
2022-11-14T10:28:55.210Z,72.65
2022-11-14T10:29:53.238Z,74.84
2022-11-14T10:30:53.192Z,76.40
2022-11-14T10:31:54.222Z,76.72
2022-11-14T10:32:53.216Z,75.72
2022-11-14T10:33:53.212Z,75.55
2022-11-14T10:34:53.218Z,73.94
2022-11-14T10:35:53.175Z,73.03
2022-11-14T10:36:53.148Z,73.94
2022-11-14T10:37:53.190Z,74.25
2022-11-14T10:38:53.140Z,73.47
2022-11-14T10:39:53.138Z,71.80
2022-11-14T10:40:53.116Z,71.46
2022-11-14T10:41:59.951Z,70.95
2022-11-14T10:42:55.219Z,70.75
2022-11-14T10:43:53.121Z,70.95
2022-11-14T10:44:53.105Z,70.85
2022-11-14T10:45:53.102Z,71.53
2022-11-14T10:46:53.091Z,70.37
2022-11-14T10:47:53.084Z,74.53
2022-11-14T10:48:56.267Z,76.03
2022-11-14T10:49:55.075Z,76.26
2022-11-14T10:50:53.057Z,75.07
2022-11-14T10:51:53.075Z,74.73
2022-11-14T10:52:53.051Z,72.99
2022-11-14T10:53:53.032Z,74.05
2022-11-14T10:54:53.030Z,74.76
2022-11-14T10:56:05.672Z,76.40
2022-11-14T10:56:55.008Z,76.64
2022-11-14T10:57:53.028Z,74.46
2022-11-14T10:58:52.994Z,74.56
2022-11-14T10:59:52.973Z,74.93
2022-11-14T11:00:53.012Z,74.18
2022-11-14T11:01:52.984Z,73.27
2022-11-14T11:02:52.952Z,72.45
2022-11-14T11:03:53.036Z,73.84
2022-11-14T11:04:52.999Z,72.17
2022-11-14T11:05:52.931Z,71.73
2022-11-14T11:06:52.985Z,71.50
2022-11-14T11:07:53.891Z,71.30
2022-11-14T11:08:52.969Z,71.30
2022-11-14T11:09:53.942Z,71.70
2022-11-14T11:10:52.937Z,72.11
2022-11-14T11:11:52.944Z,71.77
2022-11-14T11:12:52.882Z,71.26
2022-11-14T11:13:53.909Z,71.70
2022-11-14T11:14:52.882Z,72.08
2022-11-14T11:15:52.878Z,70.82
2022-11-14T11:16:52.854Z,70.07
2022-11-14T11:17:52.856Z,71.70
2022-11-14T11:18:52.861Z,73.84
2022-11-14T11:19:52.816Z,74.29
2022-11-14T11:20:53.898Z,74.90
2022-11-14T11:21:53.058Z,75.41
2022-11-14T11:22:52.831Z,76.12
2022-11-14T11:23:52.801Z,74.83
2022-11-14T11:24:52.829Z,75.17
2022-11-14T11:25:52.779Z,74.97
2022-11-14T11:26:52.844Z,75.62
2022-11-14T11:27:52.853Z,75.82
2022-11-14T11:28:52.792Z,76.64
2022-11-14T11:29:52.762Z,76.23
2022-11-14T11:30:54.447Z,75.95
2022-11-14T11:31:53.741Z,74.55
2022-11-14T11:32:52.765Z,73.06
2022-11-14T11:33:52.729Z,72.69
2022-11-14T11:34:52.732Z,71.26
2022-11-14T11:35:52.741Z,70.86
2022-11-14T11:36:52.730Z,71.84
2022-11-14T11:37:52.715Z,73.27
2022-11-14T11:38:52.741Z,74.15
2022-11-14T11:39:52.702Z,73.19
2022-11-14T11:40:52.665Z,73.10
2022-11-14T11:42:10.287Z,72.34
2022-11-14T11:43:36.625Z,72.24
2022-11-14T11:43:57.064Z,72.62
2022-11-14T11:44:53.684Z,71.60
2022-11-14T11:45:52.641Z,71.67
2022-11-14T11:46:52.670Z,71.23
2022-11-14T11:47:52.692Z,71.19
2022-11-14T11:48:52.615Z,70.62
2022-11-14T11:49:54.791Z,71.56
2022-11-14T11:50:53.629Z,72.41
2022-11-14T11:51:52.600Z,73.10
2022-11-14T11:52:52.587Z,72.08
2022-11-14T11:53:52.580Z,71.36
2022-11-14T11:54:52.586Z,72.04
2022-11-14T11:55:52.635Z,73.54
2022-11-14T11:56:52.594Z,74.79
2022-11-14T11:57:52.725Z,75.95
2022-11-14T11:58:52.584Z,76.67
2022-11-14T11:59:52.554Z,76.84
2022-11-14T12:00:52.606Z,75.57
2022-11-14T12:01:52.555Z,74.58
2022-11-14T12:02:52.685Z,73.13
2022-11-14T12:03:52.591Z,72.11
2022-11-14T12:04:52.513Z,73.06
2022-11-14T12:05:52.518Z,73.57
2022-11-14T12:06:52.550Z,74.38
2022-11-14T12:07:53.372Z,74.73
2022-11-14T12:08:52.479Z,75.74
2022-11-14T12:10:11.866Z,75.88
2022-11-14T12:10:54.509Z,77.04
2022-11-14T12:11:52.454Z,76.84
2022-11-14T12:12:52.462Z,75.78
2022-11-14T12:13:52.457Z,76.39
2022-11-14T12:14:52.423Z,75.88
2022-11-14T12:15:52.465Z,75.95
2022-11-14T12:16:52.449Z,75.40
2022-11-14T12:17:52.433Z,75.40
2022-11-14T12:18:52.412Z,74.69
2022-11-14T12:19:52.470Z,75.92
2022-11-14T12:20:52.491Z,75.34
2022-11-14T12:21:58.359Z,75.95
2022-11-14T12:22:54.389Z,75.85
2022-11-14T12:23:52.368Z,75.51
2022-11-14T12:24:52.380Z,74.04
2022-11-14T12:25:52.362Z,73.80
2022-11-14T12:26:52.344Z,74.55
2022-11-14T12:27:52.427Z,75.78
2022-11-14T12:28:52.343Z,75.67
2022-11-14T12:29:52.342Z,76.15
2022-11-14T12:30:52.328Z,76.35
2022-11-14T12:31:52.341Z,77.62
2022-11-14T12:33:24.220Z,78.57
2022-11-14T12:33:52.389Z,78.91
2022-11-14T12:35:24.438Z,80.79
2022-11-14T12:35:52.325Z,80.32
2022-11-14T12:36:52.327Z,80.48
2022-11-14T12:38:24.184Z,81.34
2022-11-14T12:38:52.421Z,81.13
2022-11-14T12:39:52.251Z,81.95
2022-11-14T12:40:52.281Z,81.24
2022-11-14T12:41:52.247Z,81.95
2022-11-14T12:42:52.226Z,82.40
2022-11-14T12:43:52.314Z,82.87
2022-11-14T12:45:24.136Z,81.34
2022-11-14T12:45:52.206Z,81.03
2022-11-14T12:46:52.209Z,81.03
2022-11-14T12:47:52.203Z,81.13
2022-11-14T12:48:52.207Z,81.03
2022-11-14T12:49:52.170Z,81.74
2022-11-14T12:50:52.193Z,81.13
2022-11-14T12:51:52.160Z,81.13
2022-11-14T12:52:52.183Z,80.75
2022-11-14T12:53:52.138Z,79.69
2022-11-14T12:54:52.163Z,79.59
2022-11-14T12:55:52.169Z,79.22
2022-11-14T12:56:54.206Z,79.52
2022-11-14T12:57:53.113Z,79.49
2022-11-14T12:58:52.158Z,78.57
2022-11-14T12:59:52.143Z,78.57
2022-11-14T13:00:52.167Z,79.12
2022-11-14T13:01:52.161Z,79.32
2022-11-14T13:02:52.098Z,79.93
2022-11-14T13:03:52.071Z,80.44
2022-11-14T13:04:52.051Z,79.18
2022-11-14T13:05:52.057Z,80.00
2022-11-14T13:06:52.100Z,80.20
2022-11-14T13:07:52.998Z,80.10
2022-11-14T13:08:52.053Z,79.80
2022-11-14T13:09:52.089Z,79.28
2022-11-14T13:10:52.030Z,79.28
2022-11-14T13:11:52.002Z,78.94
2022-11-14T13:12:51.984Z,79.14
2022-11-14T13:13:52.047Z,78.53
2022-11-14T13:14:51.990Z,78.84
2022-11-14T13:15:51.965Z,78.43
2022-11-14T13:16:52.001Z,78.43
2022-11-14T13:17:51.939Z,78.64
2022-11-14T13:18:51.962Z,78.91
2022-11-14T13:19:51.915Z,78.19
2022-11-14T13:20:51.958Z,77.92
2022-11-14T13:21:51.956Z,79.11
2022-11-14T13:22:51.935Z,78.60